Emelle, Alabama
Current Conditions -  °F | °C
As of 12:56 PM on Sunday 23 Nov 2014 (Local Time) from KNMM Reporting Station
Broken Clouds Broken Clouds  
Wind Chill: 19°   Ceiling: 3300
Heat Index: 19°   Visibility: 10mi
Dew Point: 16°   Wind: 15mph
Humidity: 79%   Direction: 200°SSW
Pressure: 29.55"   Gusts: 28mph
Location:  32.73°N, 88.31°W
Report Text: KNMM 231856Z AUTO 20013G24KT 10SM SCT024 BKN033 19/16 A2955 RMK AO2 PK WND 19026/1844 RAE23 SLP015 P0001 T01940156 $
Loading
Personal Weather Stations






























Interactive Weather Map New forecast layout! Learn more

10-Day Weather Forecast

Advertisements
Track Severe Weather on mobile